KVKS/VKS METAR and TAF weather

Enter ICAO airport designator
Station Type Date Time Source
KVKS METAR 2018/12/15 23:55 UTC NOAA

KVKS 152355Z AUTO 31003KT 9SM BKN024 OVC028 10/08 A3010 RMK A01


Station Type Date Time Source
KVKS Decoded METAR 2018/12/15 23:55 UTC NOAA

Vicksburg Municipal, MS, United States (KVKS) 32-14N 090-56W
Dec 15, 2018 - 06:55 PM EST / 2018.12.15 2355 UTC
Wind: from the NW (310 degrees) at 3 MPH (3 KT):0
Visibility: 9 mile(s):0
Sky conditions: overcast
Temperature: 50 F (10 C)
Dew Point: 46 F (8 C)
Relative Humidity: 87%
Pressure (altimeter): 30.1 in. Hg (1019 hPa)
ob: KVKS 152355Z AUTO 31003KT 9SM BKN024 OVC028 10/08 A3010 RMK A01
cycle: 0

Station Type Date Time Source
KVKS TAF UTC NOAA

Error!


Example: see airport list